Time;durP1;ratioP1;P1;durP2;ratioP2;P2;SDS_P1;SDS_P2;PMS_P1;PMS_P2;Temp;Humidity;BMP_temperature;BMP_pressure;BME280_temperature;BME280_humidity;BME280_pressure;Samples;Min_cycle;Max_cycle;Signal;HPM_P1;HPM_P2
2023/05/10 00:00:28;;;;;;;;;;;;;;;;;;1040342;28;4009;-54
2023/05/10 00:01:13;;;;;;;;;;;;;;;;;;1044457;28;4148;-50
2023/05/10 00:01:43;;;;;;;;;;;;;;;;;;1047165;28;1752;-51
2023/05/10 00:02:13;;;;;;;;;;;;;;;;;;1045664;28;4391;-47
2023/05/10 00:02:44;;;;;;;;;;;;;;;;;;1046067;28;2934;-46
2023/05/10 00:03:14;;;;;;;;;;;;;;;;;;1046707;28;3817;-50
2023/05/10 00:03:44;;;;;;;;;;;;;;;;;;1044131;28;2937;-53
2023/05/10 00:04:15;;;;;;;;;;;;;;;;;;1046007;28;4105;-49
2023/05/10 00:04:45;;;;;;;;;;;;;;;;;;1046708;28;1686;-49
2023/05/10 00:05:15;;;;;;;;;;;;;;;;;;1046023;28;4061;-53
2023/05/10 00:05:45;;;;;;;;;;;;;;;;;;1046302;28;2875;-55
2023/05/10 00:06:16;;;;;;;;;;;;;;;;;;1044395;28;4029;-51
2023/05/10 00:06:46;;;;;;;;;;;;;;;;;;1046143;28;3018;-47
2023/05/10 00:07:19;;;;;;;;;;;;;;;;;;1045362;28;4013;-49
2023/05/10 00:07:50;;;;;;;;;;;;;;;;;;1047607;28;2777;-57
2023/05/10 00:08:20;;;;;;;;;;;;;;;;;;1045838;28;4116;-50
2023/05/10 00:08:50;;;;;;;;;;;;;;;;;;1046365;28;3109;-50
2023/05/10 00:09:20;;;;;;;;;;;;;;;;;;1045255;28;3846;-49
2023/05/10 00:09:51;;;;;;;;;;;;;;;;;;1045312;28;2859;-50
2023/05/10 00:10:21;;;;;;;;;;;;;;;;;;1045678;28;4033;-46
2023/05/10 00:10:52;;;;;;;;;;;;;;;;;;1043879;28;3020;-50
2023/05/10 00:11:22;;;;;;;;;;;;;;;;;;1045607;28;4221;-47
2023/05/10 00:11:53;;;;;;;;;;;;;;;;;;1046682;28;4255;-48
2023/05/10 00:12:23;;;;;;;;;;;;;;;;;;1047394;28;3948;-50
2023/05/10 00:12:53;;;;;;;;;;;;;;;;;;1046833;28;1754;-53
2023/05/10 00:13:23;;;;;;;;;;;;;;;;;;1047054;28;3965;-48
2023/05/10 00:13:54;;;;;;;;;;;;;;;;;;1045863;28;2891;-50
2023/05/10 00:14:24;;;;;;;;;;;;;;;;;;1047497;28;4356;-49
2023/05/10 00:14:54;;;;;;;;;;;;;;;;;;1047115;28;1759;-52
2023/05/10 00:15:25;;;;;;;;;;;;;;;;;;1045853;28;3948;-47
2023/05/10 00:15:55;;;;;;;;;;;;;;;;;;1046519;28;1712;-52
2023/05/10 00:16:25;;;;;;;;;;;;;;;;;;1046911;28;3877;-47
2023/05/10 00:16:56;;;;;;;;;;;;;;;;;;1046287;28;2951;-50
2023/05/10 00:17:26;;;;;;;;;;;;;;;;;;1045465;28;3970;-53
2023/05/10 00:17:56;;;;;;;;;;;;;;;;;;1047824;28;1667;-49
2023/05/10 00:18:26;;;;;;;;;;;;;;;;;;1044410;28;3930;-52
2023/05/10 00:18:57;;;;;;;;;;;;;;;;;;1044100;28;2973;-54
2023/05/10 00:19:27;;;;;;;;;;;;;;;;;;1042437;28;3836;-50
2023/05/10 00:19:57;;;;;;;;;;;;;;;;;;1047060;28;1707;-49
2023/05/10 00:20:27;;;;;;;;;;;;;;;;;;1046428;28;3844;-54
2023/05/10 00:20:58;;;;;;;;;;;;;;;;;;1045244;28;2867;-50
2023/05/10 00:21:28;;;;;;;;;;;;;;;;;;1045970;28;3758;-53
2023/05/10 00:21:58;;;;;;;;;;;;;;;;;;1046136;28;3867;-50
2023/05/10 00:22:29;;;;;;;;;;;;;;;;;;1045732;28;3554;-52
2023/05/10 00:22:59;;;;;;;;;;;;;;;;;;1046744;28;4160;-47
2023/05/10 00:23:29;;;;;;;;;;;;;;;;;;1046932;28;1657;-46
2023/05/10 00:24:00;;;;;;;;;;;;;;;;;;1045859;28;4049;-49
2023/05/10 00:24:30;;;;;;;;;;;;;;;;;;1044886;28;2877;-50
2023/05/10 00:25:01;;;;;;;;;;;;;;;;;;1047411;28;3961;-50
2023/05/10 00:25:31;;;;;;;;;;;;;;;;;;1046599;28;1859;-53
2023/05/10 00:26:01;;;;;;;;;;;;;;;;;;1045165;28;3853;-50
2023/05/10 00:26:32;;;;;;;;;;;;;;;;;;1046999;28;3056;-48
2023/05/10 00:27:03;;;;;;;;;;;;;;;;;;1046602;28;3870;-49
2023/05/10 00:27:34;;;;;;;;;;;;;;;;;;1046960;28;2812;-52
2023/05/10 00:28:04;;;;;;;;;;;;;;;;;;1045622;28;3878;-51
2023/05/10 00:28:34;;;;;;;;;;;;;;;;;;1046603;28;1838;-49
2023/05/10 00:29:04;;;;;;;;;;;;;;;;;;1043944;28;4081;-49
2023/05/10 00:29:35;;;;;;;;;;;;;;;;;;1043211;28;1737;-48
2023/05/10 00:30:06;;;;;;;;;;;;;;;;;;1041131;28;3981;-51
2023/05/10 00:30:36;;;;;;;;;;;;;;;;;;1046405;28;3039;-49
2023/05/10 00:31:06;;;;;;;;;;;;;;;;;;1045921;28;4072;-50
2023/05/10 00:31:36;;;;;;;;;;;;;;;;;;1047455;28;1710;-51
2023/05/10 00:32:07;;;;;;;;;;;;;;;;;;1044671;28;3906;-49
2023/05/10 00:32:37;;;;;;;;;;;;;;;;;;1047072;28;2742;-49
2023/05/10 00:33:07;;;;;;;;;;;;;;;;;;1044615;28;4459;-51
2023/05/10 00:33:37;;;;;;;;;;;;;;;;;;1047752;28;1717;-49
2023/05/10 00:34:08;;;;;;;;;;;;;;;;;;1044490;28;4037;-52
2023/05/10 00:34:38;;;;;;;;;;;;;;;;;;1045993;28;3046;-47
2023/05/10 00:35:08;;;;;;;;;;;;;;;;;;1046389;28;3946;-55
2023/05/10 00:35:38;;;;;;;;;;;;;;;;;;1045508;28;3252;-50
2023/05/10 00:36:09;;;;;;;;;;;;;;;;;;1043075;28;4133;-53
2023/05/10 00:36:39;;;;;;;;;;;;;;;;;;1045628;28;3486;-50
2023/05/10 00:37:09;;;;;;;;;;;;;;;;;;1045241;28;4393;-53
2023/05/10 00:37:40;;;;;;;;;;;;;;;;;;1043462;28;3037;-54
2023/05/10 00:38:10;;;;;;;;;;;;;;;;;;1045608;28;3993;-52
2023/05/10 00:38:40;;;;;;;;;;;;;;;;;;1046124;28;2919;-51
2023/05/10 00:39:11;;;;;;;;;;;;;;;;;;1045565;28;3885;-53
2023/05/10 00:39:41;;;;;;;;;;;;;;;;;;1046984;28;1925;-49
2023/05/10 00:40:11;;;;;;;;;;;;;;;;;;1046989;28;4043;-52
2023/05/10 00:40:42;;;;;;;;;;;;;;;;;;1046013;28;2825;-52
2023/05/10 00:41:12;;;;;;;;;;;;;;;;;;1047511;28;4063;-46
2023/05/10 00:41:42;;;;;;;;;;;;;;;;;;1047005;28;1887;-49
2023/05/10 00:42:12;;;;;;;;;;;;;;;;;;1044874;28;4038;-50
2023/05/10 00:42:43;;;;;;;;;;;;;;;;;;1045509;28;2993;-50
2023/05/10 00:43:13;;;;;;;;;;;;;;;;;;1047332;28;3798;-50
2023/05/10 00:43:43;;;;;;;;;;;;;;;;;;1046705;28;1777;-51
2023/05/10 00:44:14;;;;;;;;;;;;;;;;;;1047282;28;3786;-51
2023/05/10 00:44:44;;;;;;;;;;;;;;;;;;1048468;28;1651;-51
2023/05/10 00:45:14;;;;;;;;;;;;;;;;;;1044997;28;4004;-53
2023/05/10 00:45:45;;;;;;;;;;;;;;;;;;1047494;28;1999;-49
2023/05/10 00:46:15;;;;;;;;;;;;;;;;;;1045202;28;4264;-50
2023/05/10 00:46:46;;;;;;;;;;;;;;;;;;1046256;28;1713;-47
2023/05/10 00:47:16;;;;;;;;;;;;;;;;;;1046137;28;3800;-48
2023/05/10 00:47:47;;;;;;;;;;;;;;;;;;1046987;28;2996;-50
2023/05/10 00:48:17;;;;;;;;;;;;;;;;;;1042793;28;3891;-50
2023/05/10 00:48:47;;;;;;;;;;;;;;;;;;1045396;28;2967;-49
2023/05/10 00:49:18;;;;;;;;;;;;;;;;;;1045509;28;3882;-48
2023/05/10 00:49:49;;;;;;;;;;;;;;;;;;1047234;28;1260;-52
2023/05/10 00:50:19;;;;;;;;;;;;;;;;;;1044443;28;3857;-49
2023/05/10 00:50:49;;;;;;;;;;;;;;;;;;1046813;28;1802;-52
2023/05/10 00:51:20;;;;;;;;;;;;;;;;;;1045861;28;3956;-53
2023/05/10 00:51:50;;;;;;;;;;;;;;;;;;1045729;28;3524;-50
2023/05/10 00:52:23;;;;;;;;;;;;;;;;;;1045660;28;4007;-52
2023/05/10 00:52:53;;;;;;;;;;;;;;;;;;1045303;28;3528;-52
2023/05/10 00:53:24;;;;;;;;;;;;;;;;;;1043034;28;3858;-48
2023/05/10 00:53:55;;;;;;;;;;;;;;;;;;1046718;28;1844;-51
2023/05/10 00:54:26;;;;;;;;;;;;;;;;;;1046622;28;3976;-51
2023/05/10 00:54:56;;;;;;;;;;;;;;;;;;1045497;28;2915;-51
2023/05/10 00:55:27;;;;;;;;;;;;;;;;;;1045597;28;3890;-50
2023/05/10 00:55:57;;;;;;;;;;;;;;;;;;1045312;28;1835;-51
2023/05/10 00:56:29;;;;;;;;;;;;;;;;;;1047628;28;3883;-48
2023/05/10 00:56:59;;;;;;;;;;;;;;;;;;1048194;28;4385;-46
2023/05/10 00:57:30;;;;;;;;;;;;;;;;;;1047439;28;1171;-51
2023/05/10 00:58:01;;;;;;;;;;;;;;;;;;1044250;28;3962;-48
2023/05/10 00:58:31;;;;;;;;;;;;;;;;;;1045017;28;3068;-55
2023/05/10 00:59:02;;;;;;;;;;;;;;;;;;1046421;28;3959;-51
2023/05/10 00:59:32;;;;;;;;;;;;;;;;;;1046234;28;3229;-50
2023/05/10 01:00:02;;;;;;;;;;;;;;;;;;1044389;28;3950;-50
2023/05/10 01:00:33;;;;;;;;;;;;;;;;;;1046888;28;3287;-46
2023/05/10 01:01:04;;;;;;;;;;;;;;;;;;1044266;28;4088;-50
2023/05/10 01:01:35;;;;;;;;;;;;;;;;;;1046696;28;2730;-49
2023/05/10 01:02:06;;;;;;;;;;;;;;;;;;1044563;28;3868;-50
2023/05/10 01:02:36;;;;;;;;;;;;;;;;;;1047464;28;1582;-48
2023/05/10 01:03:07;;;;;;;;;;;;;;;;;;1046359;28;3973;-49
2023/05/10 01:03:37;;;;;;;;;;;;;;;;;;1047031;28;1756;-55
2023/05/10 01:04:09;;;;;;;;;;;;;;;;;;1045513;28;4159;-49
2023/05/10 01:04:39;;;;;;;;;;;;;;;;;;1047764;28;1763;-49
2023/05/10 01:05:09;;;;;;;;;;;;;;;;;;1043959;28;4173;-49
2023/05/10 01:05:40;;;;;;;;;;;;;;;;;;1045893;28;1906;-50
2023/05/10 01:06:11;;;;;;;;;;;;;;;;;;1047203;28;4188;-48
2023/05/10 01:06:41;;;;;;;;;;;;;;;;;;1047460;28;1743;-52
2023/05/10 01:07:11;;;;;;;;;;;;;;;;;;1046003;28;3800;-49
2023/05/10 01:07:42;;;;;;;;;;;;;;;;;;1044709;28;1960;-51
2023/05/10 01:08:12;;;;;;;;;;;;;;;;;;1045692;28;4015;-50
2023/05/10 01:08:42;;;;;;;;;;;;;;;;;;1043687;28;2935;-50
2023/05/10 01:09:13;;;;;;;;;;;;;;;;;;1046972;28;4231;-52
2023/05/10 01:09:43;;;;;;;;;;;;;;;;;;1044568;28;2892;-47
2023/05/10 01:10:14;;;;;;;;;;;;;;;;;;1047438;28;3773;-53
2023/05/10 01:10:44;;;;;;;;;;;;;;;;;;1044771;28;2792;-53
2023/05/10 01:11:15;;;;;;;;;;;;;;;;;;1047176;28;3814;-50
2023/05/10 01:11:45;;;;;;;;;;;;;;;;;;1045445;28;2603;-50
2023/05/10 01:12:16;;;;;;;;;;;;;;;;;;1044856;28;4267;-51
2023/05/10 01:12:47;;;;;;;;;;;;;;;;;;1045267;28;2978;-55
2023/05/10 01:13:23;;;;;;;;;;;;;;;;;;1045267;28;3974;-50
2023/05/10 01:13:56;;;;;;;;;;;;;;;;;;1045665;28;2800;-49
2023/05/10 01:14:26;;;;;;;;;;;;;;;;;;1044336;28;3897;-49
2023/05/10 01:14:57;;;;;;;;;;;;;;;;;;1046490;28;2907;-49
2023/05/10 01:15:28;;;;;;;;;;;;;;;;;;1043682;28;3814;-50
2023/05/10 01:15:59;;;;;;;;;;;;;;;;;;1046209;28;1925;-50
2023/05/10 01:16:32;;;;;;;;;;;;;;;;;;1045746;28;3831;-48
2023/05/10 01:17:03;;;;;;;;;;;;;;;;;;1038830;28;4895;-56
2023/05/10 01:17:34;;;;;;;;;;;;;;;;;;1041720;28;3111;-51
2023/05/10 01:18:05;;;;;;;;;;;;;;;;;;1043632;28;3869;-53
2023/05/10 01:18:37;;;;;;;;;;;;;;;;;;1044630;28;3083;-50
2023/05/10 01:19:12;;;;;;;;;;;;;;;;;;1044457;28;4008;-50
2023/05/10 01:19:42;;;;;;;;;;;;;;;;;;1045067;28;3502;-50
2023/05/10 01:20:14;;;;;;;;;;;;;;;;;;1043454;28;4032;-46
2023/05/10 01:20:47;;;;;;;;;;;;;;;;;;1040767;28;2886;-47
2023/05/10 01:21:27;;;;;;;;;;;;;;;;;;1039738;28;4757;-53
2023/05/10 01:21:57;;;;;;;;;;;;;;;;;;1040473;28;2929;-52
2023/05/10 01:22:34;;;;;;;;;;;;;;;;;;1041581;28;3776;-48
2023/05/10 01:23:19;;;;;;;;;;;;;;;;;;1041267;28;4038;-55
2023/05/10 01:24:08;;;;;;;;;;;;;;;;;;1041117;28;2035;-50
2023/05/10 01:24:39;;;;;;;;;;;;;;;;;;1045439;28;3797;-48
2023/05/10 01:25:12;;;;;;;;;;;;;;;;;;1045802;28;3827;-50
2023/05/10 01:26:00;;;;;;;;;;;;;;;;;;1044305;28;3437;-53
2023/05/10 01:26:30;;;;;;;;;;;;;;;;;;1043288;28;3973;-49
2023/05/10 01:27:04;;;;;;;;;;;;;;;;;;1044650;28;4396;-47
2023/05/10 01:27:43;;;;;;;;;;;;;;;;;;1044488;28;3166;-49
2023/05/10 01:28:16;;;;;;;;;;;;;;;;;;1046697;28;4070;-52
2023/05/10 01:28:55;;;;;;;;;;;;;;;;;;1045555;28;2789;-50
2023/05/10 01:29:46;;;;;;;;;;;;;;;;;;1040174;28;4354;-49
2023/05/10 01:30:17;;;;;;;;;;;;;;;;;;1039390;28;4450;-54
2023/05/10 01:30:47;;;;;;;;;;;;;;;;;;1042844;28;2954;-49
2023/05/10 01:31:20;;;;;;;;;;;;;;;;;;1041325;28;3863;-50
2023/05/10 01:32:08;;;;;;;;;;;;;;;;;;1039781;28;3014;-52
2023/05/10 01:32:41;;;;;;;;;;;;;;;;;;1043607;28;4840;-47
2023/05/10 01:33:14;;;;;;;;;;;;;;;;;;1045593;28;4132;-46
2023/05/10 01:34:08;;;;;;;;;;;;;;;;;;1046505;28;1838;-54
2023/05/10 01:34:54;;;;;;;;;;;;;;;;;;1039217;28;3810;-50
2023/05/10 01:35:41;;;;;;;;;;;;;;;;;;1042964;28;3751;-48
2023/05/10 01:36:32;;;;;;;;;;;;;;;;;;1046062;28;4495;-52
2023/05/10 01:37:04;;;;;;;;;;;;;;;;;;1045215;28;3874;-51
2023/05/10 01:37:35;;;;;;;;;;;;;;;;;;1051248;28;2953;-50
2023/05/10 01:38:34;;;;;;;;;;;;;;;;;;1053713;28;3958;-49
2023/05/10 01:39:05;;;;;;;;;;;;;;;;;;1030771;28;4112;-52
2023/05/10 01:39:38;;;;;;;;;;;;;;;;;;1026468;28;4551;-50
2023/05/10 01:40:28;;;;;;;;;;;;;;;;;;1027682;28;4003;-49
2023/05/10 01:41:14;;;;;;;;;;;;;;;;;;1019589;28;4357;-50
2023/05/10 01:41:49;;;;;;;;;;;;;;;;;;1042948;28;2919;-47
2023/05/10 01:42:26;;;;;;;;;;;;;;;;;;1045366;28;3779;-50
2023/05/10 01:43:01;;;;;;;;;;;;;;;;;;1047055;28;2758;-52
2023/05/10 01:43:34;;;;;;;;;;;;;;;;;;1045856;28;3635;-48
2023/05/10 01:44:16;;;;;;;;;;;;;;;;;;1045959;28;3938;-50
2023/05/10 01:44:56;;;;;;;;;;;;;;;;;;1047813;28;3107;-50
2023/05/10 01:45:28;;;;;;;;;;;;;;;;;;1043765;28;3786;-51
2023/05/10 01:46:04;;;;;;;;;;;;;;;;;;1046029;28;4077;-48
2023/05/10 01:46:39;;;;;;;;;;;;;;;;;;1042518;28;3361;-50
2023/05/10 01:47:11;;;;;;;;;;;;;;;;;;1050909;28;3808;-49
2023/05/10 01:47:45;;;;;;;;;;;;;;;;;;1052229;28;2854;-49
2023/05/10 01:48:16;;;;;;;;;;;;;;;;;;1050573;28;3948;-51
2023/05/10 01:48:48;;;;;;;;;;;;;;;;;;1053100;28;1710;-53
2023/05/10 01:49:26;;;;;;;;;;;;;;;;;;1045515;28;4020;-50
2023/05/10 01:49:59;;;;;;;;;;;;;;;;;;1044325;28;2892;-48
2023/05/10 01:50:30;;;;;;;;;;;;;;;;;;1046571;28;3615;-49
2023/05/10 01:51:01;;;;;;;;;;;;;;;;;;1046765;28;4229;-48
2023/05/10 01:51:36;;;;;;;;;;;;;;;;;;1047513;28;1102;-50
2023/05/10 01:52:09;;;;;;;;;;;;;;;;;;1046067;28;4051;-50
2023/05/10 01:52:41;;;;;;;;;;;;;;;;;;1045841;28;2893;-53
2023/05/10 01:53:12;;;;;;;;;;;;;;;;;;1044893;28;3918;-53
2023/05/10 01:53:45;;;;;;;;;;;;;;;;;;1045257;28;2969;-51
2023/05/10 01:54:17;;;;;;;;;;;;;;;;;;1045001;28;3984;-51
2023/05/10 01:55:13;;;;;;;;;;;;;;;;;;1047813;28;1680;-53
2023/05/10 01:55:52;;;;;;;;;;;;;;;;;;1041792;28;3915;-54
2023/05/10 01:56:24;;;;;;;;;;;;;;;;;;1044484;28;3933;-48
2023/05/10 01:57:00;;;;;;;;;;;;;;;;;;1046447;28;2721;-51
2023/05/10 01:57:34;;;;;;;;;;;;;;;;;;1047035;28;4014;-53
2023/05/10 01:58:06;;;;;;;;;;;;;;;;;;1046192;28;3762;-50
2023/05/10 01:58:36;;;;;;;;;;;;;;;;;;1047164;28;2045;-49
2023/05/10 01:59:11;;;;;;;;;;;;;;;;;;1047087;28;4036;-52
2023/05/10 01:59:43;;;;;;;;;;;;;;;;;;1044193;28;3074;-49
2023/05/10 02:00:14;;;;;;;;;;;;;;;;;;1044130;28;4058;-50
2023/05/10 02:00:45;;;;;;;;;;;;;;;;;;1054295;28;3149;-49
2023/05/10 02:01:16;;;;;;;;;;;;;;;;;;1054839;28;4205;-52
2023/05/10 02:01:47;;;;;;;;;;;;;;;;;;1052687;28;2577;-47
2023/05/10 02:02:19;;;;;;;;;;;;;;;;;;1053924;28;3992;-51
2023/05/10 02:02:51;;;;;;;;;;;;;;;;;;1045775;28;2966;-50
2023/05/10 02:03:23;;;;;;;;;;;;;;;;;;1045936;28;3879;-52
2023/05/10 02:03:54;;;;;;;;;;;;;;;;;;1045942;28;2663;-52
2023/05/10 02:04:25;;;;;;;;;;;;;;;;;;1046784;28;3961;-49
2023/05/10 02:04:56;;;;;;;;;;;;;;;;;;1045471;28;2844;-50
2023/05/10 02:05:28;;;;;;;;;;;;;;;;;;1045027;28;4045;-48
2023/05/10 02:05:59;;;;;;;;;;;;;;;;;;1045484;28;3834;-46
2023/05/10 02:06:30;;;;;;;;;;;;;;;;;;1047368;28;1897;-51
2023/05/10 02:07:01;;;;;;;;;;;;;;;;;;1042980;28;3968;-49
2023/05/10 02:07:33;;;;;;;;;;;;;;;;;;1045426;28;2668;-51
2023/05/10 02:08:05;;;;;;;;;;;;;;;;;;1046310;28;4938;-51
2023/05/10 02:08:36;;;;;;;;;;;;;;;;;;1045048;28;2922;-52
2023/05/10 02:09:07;;;;;;;;;;;;;;;;;;1044543;28;3966;-53
2023/05/10 02:09:38;;;;;;;;;;;;;;;;;;1046302;28;3217;-49
2023/05/10 02:10:09;;;;;;;;;;;;;;;;;;1045845;28;4482;-51
2023/05/10 02:10:39;;;;;;;;;;;;;;;;;;1044556;28;3040;-50
2023/05/10 02:11:12;;;;;;;;;;;;;;;;;;1043866;28;3986;-46
2023/05/10 02:11:43;;;;;;;;;;;;;;;;;;1045179;28;2937;-48
2023/05/10 02:12:15;;;;;;;;;;;;;;;;;;1045705;28;3834;-50
2023/05/10 02:12:47;;;;;;;;;;;;;;;;;;1044494;28;2980;-47
2023/05/10 02:13:18;;;;;;;;;;;;;;;;;;1046151;28;4040;-51
2023/05/10 02:13:50;;;;;;;;;;;;;;;;;;1046235;28;3055;-49
2023/05/10 02:14:21;;;;;;;;;;;;;;;;;;1046063;28;4226;-52
2023/05/10 02:14:52;;;;;;;;;;;;;;;;;;1044119;28;3080;-48
2023/05/10 02:15:23;;;;;;;;;;;;;;;;;;1044340;28;4043;-50
2023/05/10 02:15:54;;;;;;;;;;;;;;;;;;1047191;28;1936;-50
2023/05/10 02:16:26;;;;;;;;;;;;;;;;;;1046754;28;3703;-47
2023/05/10 02:16:56;;;;;;;;;;;;;;;;;;1045862;28;2905;-49
2023/05/10 02:17:27;;;;;;;;;;;;;;;;;;1045486;28;3719;-50
2023/05/10 02:17:58;;;;;;;;;;;;;;;;;;1044130;28;2726;-51
2023/05/10 02:18:29;;;;;;;;;;;;;;;;;;1044684;28;3955;-50
2023/05/10 02:19:01;;;;;;;;;;;;;;;;;;1045319;28;4083;-51
2023/05/10 02:19:32;;;;;;;;;;;;;;;;;;1046528;28;1662;-51
2023/05/10 02:20:04;;;;;;;;;;;;;;;;;;1043604;28;3970;-47
2023/05/10 02:20:36;;;;;;;;;;;;;;;;;;1042631;28;1797;-53
2023/05/10 02:21:07;;;;;;;;;;;;;;;;;;1041578;28;3895;-50
2023/05/10 02:21:39;;;;;;;;;;;;;;;;;;1042815;28;2988;-47
2023/05/10 02:22:09;;;;;;;;;;;;;;;;;;1042558;28;3947;-50
2023/05/10 02:22:41;;;;;;;;;;;;;;;;;;1045709;28;2624;-52
2023/05/10 02:23:12;;;;;;;;;;;;;;;;;;1045152;28;4027;-50
2023/05/10 02:23:43;;;;;;;;;;;;;;;;;;1046487;28;1664;-53
2023/05/10 02:24:14;;;;;;;;;;;;;;;;;;1044743;28;4387;-50
2023/05/10 02:24:46;;;;;;;;;;;;;;;;;;1044146;28;2945;-56
2023/05/10 02:25:17;;;;;;;;;;;;;;;;;;1042288;28;3763;-48
2023/05/10 02:25:49;;;;;;;;;;;;;;;;;;1045061;28;2832;-47
2023/05/10 02:26:22;;;;;;;;;;;;;;;;;;1044056;28;3789;-51
2023/05/10 02:26:54;;;;;;;;;;;;;;;;;;1046420;28;2958;-51
2023/05/10 02:27:25;;;;;;;;;;;;;;;;;;1044571;28;4015;-53
2023/05/10 02:27:56;;;;;;;;;;;;;;;;;;1044681;28;3386;-49
2023/05/10 02:28:27;;;;;;;;;;;;;;;;;;1043577;28;4942;-51
2023/05/10 02:28:58;;;;;;;;;;;;;;;;;;1044150;28;3131;-50
2023/05/10 02:29:29;;;;;;;;;;;;;;;;;;1045746;28;3667;-50
2023/05/10 02:30:00;;;;;;;;;;;;;;;;;;1046750;28;4849;-50
2023/05/10 02:30:31;;;;;;;;;;;;;;;;;;1042588;28;2864;-50
2023/05/10 02:31:02;;;;;;;;;;;;;;;;;;1045632;28;3880;-48
2023/05/10 02:31:33;;;;;;;;;;;;;;;;;;1046177;28;1893;-50
2023/05/10 02:32:03;;;;;;;;;;;;;;;;;;1045386;28;3938;-48
2023/05/10 02:32:34;;;;;;;;;;;;;;;;;;1044677;28;3318;-54
2023/05/10 02:33:05;;;;;;;;;;;;;;;;;;1045156;28;3850;-49
2023/05/10 02:33:35;;;;;;;;;;;;;;;;;;1044813;28;2956;-48
2023/05/10 02:34:06;;;;;;;;;;;;;;;;;;1043754;28;4097;-53
2023/05/10 02:34:37;;;;;;;;;;;;;;;;;;1044993;28;1727;-47
2023/05/10 02:35:09;;;;;;;;;;;;;;;;;;1042450;28;4119;-51
2023/05/10 02:35:40;;;;;;;;;;;;;;;;;;1045640;28;2919;-48
2023/05/10 02:36:11;;;;;;;;;;;;;;;;;;1045066;28;4100;-51
2023/05/10 02:36:41;;;;;;;;;;;;;;;;;;1046320;28;1953;-54
2023/05/10 02:37:13;;;;;;;;;;;;;;;;;;1042965;28;3820;-51
2023/05/10 02:37:44;;;;;;;;;;;;;;;;;;1046158;28;2824;-48
2023/05/10 02:38:15;;;;;;;;;;;;;;;;;;1043730;28;4075;-49
2023/05/10 02:38:46;;;;;;;;;;;;;;;;;;1046343;28;2542;-55
2023/05/10 02:39:18;;;;;;;;;;;;;;;;;;1044471;28;4044;-52
2023/05/10 02:39:50;;;;;;;;;;;;;;;;;;1045933;28;2956;-50
2023/05/10 02:40:22;;;;;;;;;;;;;;;;;;1043000;28;3824;-49
2023/05/10 02:40:53;;;;;;;;;;;;;;;;;;1046489;28;2844;-54
2023/05/10 02:41:24;;;;;;;;;;;;;;;;;;1045900;28;3941;-47
2023/05/10 02:41:55;;;;;;;;;;;;;;;;;;1044447;28;2960;-51
2023/05/10 02:42:27;;;;;;;;;;;;;;;;;;1044062;28;4062;-51
2023/05/10 02:42:58;;;;;;;;;;;;;;;;;;1046839;28;3078;-51
2023/05/10 02:43:30;;;;;;;;;;;;;;;;;;1045697;28;3905;-48
2023/05/10 02:44:02;;;;;;;;;;;;;;;;;;1044199;28;4376;-49
2023/05/10 02:44:33;;;;;;;;;;;;;;;;;;1040640;28;2928;-51
2023/05/10 02:45:10;;;;;;;;;;;;;;;;;;1039819;28;4874;-52
2023/05/10 02:45:42;;;;;;;;;;;;;;;;;;1041897;28;2952;-51
2023/05/10 02:46:12;;;;;;;;;;;;;;;;;;1041340;28;3972;-47
2023/05/10 02:46:43;;;;;;;;;;;;;;;;;;1041625;28;3048;-51
2023/05/10 02:47:13;;;;;;;;;;;;;;;;;;1041094;28;3885;-55
2023/05/10 02:47:44;;;;;;;;;;;;;;;;;;1040542;28;2827;-55
2023/05/10 02:48:14;;;;;;;;;;;;;;;;;;1040999;28;5231;-51
2023/05/10 02:48:44;;;;;;;;;;;;;;;;;;1040733;28;2936;-47
2023/05/10 02:49:15;;;;;;;;;;;;;;;;;;1040749;28;4283;-50
2023/05/10 02:49:45;;;;;;;;;;;;;;;;;;1041951;28;3182;-52
2023/05/10 02:50:16;;;;;;;;;;;;;;;;;;1040506;28;3927;-49
2023/05/10 02:50:51;;;;;;;;;;;;;;;;;;1040708;28;2795;-51
2023/05/10 02:51:24;;;;;;;;;;;;;;;;;;1042624;28;4058;-55
2023/05/10 02:51:57;;;;;;;;;;;;;;;;;;1042169;28;1752;-50
2023/05/10 02:52:29;;;;;;;;;;;;;;;;;;1042795;28;3884;-51
2023/05/10 02:53:01;;;;;;;;;;;;;;;;;;1042136;28;4247;-51
2023/05/10 02:53:34;;;;;;;;;;;;;;;;;;1042233;28;2917;-48
2023/05/10 02:54:10;;;;;;;;;;;;;;;;;;1038535;28;3968;-51
2023/05/10 02:54:50;;;;;;;;;;;;;;;;;;1041099;28;1828;-51
2023/05/10 02:55:22;;;;;;;;;;;;;;;;;;1040849;28;3839;-51
2023/05/10 02:55:56;;;;;;;;;;;;;;;;;;1040786;28;2878;-50
2023/05/10 02:56:32;;;;;;;;;;;;;;;;;;1040285;28;3856;-51
2023/05/10 02:57:04;;;;;;;;;;;;;;;;;;1041051;28;3878;-48
2023/05/10 02:57:37;;;;;;;;;;;;;;;;;;1039499;28;3097;-50
2023/05/10 02:58:07;;;;;;;;;;;;;;;;;;1042587;28;3840;-49
2023/05/10 02:58:37;;;;;;;;;;;;;;;;;;1041772;28;2921;-54
2023/05/10 02:59:08;;;;;;;;;;;;;;;;;;1042181;28;4128;-51
2023/05/10 02:59:38;;;;;;;;;;;;;;;;;;1040734;28;3082;-52
2023/05/10 03:00:09;;;;;;;;;;;;;;;;;;1040329;28;3864;-52
2023/05/10 03:00:39;;;;;;;;;;;;;;;;;;1040288;28;2758;-47
2023/05/10 03:01:09;;;;;;;;;;;;;;;;;;1041207;28;3897;-48
2023/05/10 03:01:40;;;;;;;;;;;;;;;;;;1039863;28;2716;-53
2023/05/10 03:02:12;;;;;;;;;;;;;;;;;;1039816;28;3886;-52
2023/05/10 03:02:42;;;;;;;;;;;;;;;;;;1042256;28;1818;-50
2023/05/10 03:03:12;;;;;;;;;;;;;;;;;;1042871;28;4106;-49
2023/05/10 03:03:42;;;;;;;;;;;;;;;;;;1042218;28;1764;-49
2023/05/10 03:04:13;;;;;;;;;;;;;;;;;;1039899;28;4215;-50
2023/05/10 03:04:43;;;;;;;;;;;;;;;;;;1040361;28;2946;-50
2023/05/10 03:05:13;;;;;;;;;;;;;;;;;;1040723;28;4046;-48
2023/05/10 03:05:44;;;;;;;;;;;;;;;;;;1042081;28;2928;-48
2023/05/10 03:06:14;;;;;;;;;;;;;;;;;;1039146;28;4392;-49
2023/05/10 03:06:44;;;;;;;;;;;;;;;;;;1041588;28;1948;-51
2023/05/10 03:07:15;;;;;;;;;;;;;;;;;;1042197;28;4146;-51
2023/05/10 03:07:46;;;;;;;;;;;;;;;;;;1042092;28;1883;-52
2023/05/10 03:08:16;;;;;;;;;;;;;;;;;;1041292;28;5057;-50
2023/05/10 03:08:46;;;;;;;;;;;;;;;;;;1042659;28;1851;-52
2023/05/10 03:09:16;;;;;;;;;;;;;;;;;;1041568;28;4056;-51
2023/05/10 03:09:48;;;;;;;;;;;;;;;;;;1042605;28;1751;-48
2023/05/10 03:10:18;;;;;;;;;;;;;;;;;;1042525;28;4016;-49
2023/05/10 03:10:55;;;;;;;;;;;;;;;;;;1042584;28;1895;-52
2023/05/10 03:11:25;;;;;;;;;;;;;;;;;;1039939;28;4090;-53
2023/05/10 03:12:03;;;;;;;;;;;;;;;;;;1041934;28;1911;-51
2023/05/10 03:12:43;;;;;;;;;;;;;;;;;;1044816;28;3823;-51
2023/05/10 03:13:25;;;;;;;;;;;;;;;;;;1046212;28;3937;-49
2023/05/10 03:14:12;;;;;;;;;;;;;;;;;;1047407;28;1754;-52
2023/05/10 03:14:45;;;;;;;;;;;;;;;;;;1045324;28;3817;-48
2023/05/10 03:15:19;;;;;;;;;;;;;;;;;;1044388;28;3951;-48
2023/05/10 03:15:55;;;;;;;;;;;;;;;;;;1047341;28;2208;-50
2023/05/10 03:16:29;;;;;;;;;;;;;;;;;;1044750;28;3901;-45
2023/05/10 03:16:59;;;;;;;;;;;;;;;;;;1046633;28;3833;-48
2023/05/10 03:17:51;;;;;;;;;;;;;;;;;;1043121;28;2970;-50
2023/05/10 03:18:22;;;;;;;;;;;;;;;;;;1044519;28;3946;-51
2023/05/10 03:19:08;;;;;;;;;;;;;;;;;;1045199;28;2465;-49
2023/05/10 03:19:50;;;;;;;;;;;;;;;;;;1044360;28;3934;-50
2023/05/10 03:20:24;;;;;;;;;;;;;;;;;;1046925;28;3766;-49
2023/05/10 03:20:58;;;;;;;;;;;;;;;;;;1045784;28;3415;-46
2023/05/10 03:21:28;;;;;;;;;;;;;;;;;;1044820;28;3774;-53
2023/05/10 03:22:03;;;;;;;;;;;;;;;;;;1046634;28;1697;-48
2023/05/10 03:22:38;;;;;;;;;;;;;;;;;;1045362;28;3612;-48
2023/05/10 03:23:31;;;;;;;;;;;;;;;;;;1043891;28;4263;-48
2023/05/10 03:24:06;;;;;;;;;;;;;;;;;;1039236;28;4092;-50
2023/05/10 03:24:39;;;;;;;;;;;;;;;;;;1043119;28;3109;-50
2023/05/10 03:25:10;;;;;;;;;;;;;;;;;;1044182;28;4064;-49
2023/05/10 03:25:43;;;;;;;;;;;;;;;;;;1046219;28;2860;-54
2023/05/10 03:26:17;;;;;;;;;;;;;;;;;;1042865;28;4127;-52
2023/05/10 03:26:48;;;;;;;;;;;;;;;;;;1045312;28;3106;-50
2023/05/10 03:27:18;;;;;;;;;;;;;;;;;;1044966;28;3960;-47
2023/05/10 03:27:49;;;;;;;;;;;;;;;;;;1043747;28;3569;-49
2023/05/10 03:28:20;;;;;;;;;;;;;;;;;;1051409;28;3967;-53
2023/05/10 03:28:52;;;;;;;;;;;;;;;;;;1053023;28;3181;-48
2023/05/10 03:29:23;;;;;;;;;;;;;;;;;;1051245;28;3941;-51
2023/05/10 03:29:54;;;;;;;;;;;;;;;;;;1053748;28;1548;-50
2023/05/10 03:30:25;;;;;;;;;;;;;;;;;;1043073;28;3841;-49
2023/05/10 03:30:56;;;;;;;;;;;;;;;;;;1047072;28;2674;-50
2023/05/10 03:31:26;;;;;;;;;;;;;;;;;;1045323;28;4105;-48
2023/05/10 03:32:00;;;;;;;;;;;;;;;;;;1047134;28;1771;-53
2023/05/10 03:32:32;;;;;;;;;;;;;;;;;;1045381;28;4014;-52
2023/05/10 03:33:08;;;;;;;;;;;;;;;;;;1046789;28;4060;-51
2023/05/10 03:33:56;;;;;;;;;;;;;;;;;;1043521;28;3726;-50
2023/05/10 03:34:29;;;;;;;;;;;;;;;;;;1045175;28;3991;-50
2023/05/10 03:34:59;;;;;;;;;;;;;;;;;;1046777;28;4064;-51
2023/05/10 03:35:30;;;;;;;;;;;;;;;;;;1046058;28;2877;-52
2023/05/10 03:36:00;;;;;;;;;;;;;;;;;;1045327;28;3962;-51
2023/05/10 03:36:30;;;;;;;;;;;;;;;;;;1045205;28;3036;-54
2023/05/10 03:37:00;;;;;;;;;;;;;;;;;;1046575;28;3945;-51
2023/05/10 03:37:31;;;;;;;;;;;;;;;;;;1045123;28;1932;-50
2023/05/10 03:38:01;;;;;;;;;;;;;;;;;;1046420;28;3798;-48
2023/05/10 03:38:31;;;;;;;;;;;;;;;;;;1044022;28;1905;-48
2023/05/10 03:39:02;;;;;;;;;;;;;;;;;;1046432;28;5257;-51
2023/05/10 03:39:32;;;;;;;;;;;;;;;;;;1044889;28;2974;-52
2023/05/10 03:40:03;;;;;;;;;;;;;;;;;;1046103;28;3873;-51
2023/05/10 03:40:33;;;;;;;;;;;;;;;;;;1046051;28;2948;-51
2023/05/10 03:41:04;;;;;;;;;;;;;;;;;;1046825;28;3945;-50
2023/05/10 03:41:34;;;;;;;;;;;;;;;;;;1047118;28;1761;-48
2023/05/10 03:42:04;;;;;;;;;;;;;;;;;;1044760;28;4131;-49
2023/05/10 03:42:35;;;;;;;;;;;;;;;;;;1044741;28;3337;-50
2023/05/10 03:43:05;;;;;;;;;;;;;;;;;;1044496;28;3786;-48
2023/05/10 03:43:36;;;;;;;;;;;;;;;;;;1048021;28;1606;-53
2023/05/10 03:44:06;;;;;;;;;;;;;;;;;;1047231;28;3874;-52
2023/05/10 03:44:38;;;;;;;;;;;;;;;;;;1046208;28;3257;-49